sensor_id;sensor_type;location;lat;lon;timestamp;pressure;altitude;pressure_sealevel;temperature;humidity
57628;BME280;43451;49.060;10.616;2023-10-09T00:01:06;97355.56;;;11.98;100.00
57628;BME280;43451;49.060;10.616;2023-10-09T00:03:44;97354.03;;;12.01;100.00
57628;BME280;43451;49.060;10.616;2023-10-09T00:06:10;97359.88;;;11.99;100.00
57628;BME280;43451;49.060;10.616;2023-10-09T00:08:39;97350.94;;;11.99;100.00
57628;BME280;43451;49.060;10.616;2023-10-09T00:11:09;97353.28;;;12.11;100.00
57628;BME280;43451;49.060;10.616;2023-10-09T00:13:43;97347.44;;;12.09;100.00
57628;BME280;43451;49.060;10.616;2023-10-09T00:16:16;97346.28;;;12.06;100.00
57628;BME280;43451;49.060;10.616;2023-10-09T00:18:42;97343.19;;;12.12;100.00
57628;BME280;43451;49.060;10.616;2023-10-09T00:21:18;97347.84;;;12.15;100.00
57628;BME280;43451;49.060;10.616;2023-10-09T00:23:48;97341.59;;;12.11;100.00
57628;BME280;43451;49.060;10.616;2023-10-09T00:26:19;97345.13;;;12.15;100.00
57628;BME280;43451;49.060;10.616;2023-10-09T00:28:48;97344.31;;;12.11;100.00
57628;BME280;43451;49.060;10.616;2023-10-09T00:31:19;97335.38;;;12.10;100.00
57628;BME280;43451;49.060;10.616;2023-10-09T00:33:55;97331.88;;;12.17;100.00
57628;BME280;43451;49.060;10.616;2023-10-09T00:36:26;97329.16;;;12.13;100.00
57628;BME280;43451;49.060;10.616;2023-10-09T00:38:55;97326.81;;;12.08;100.00
57628;BME280;43451;49.060;10.616;2023-10-09T00:41:20;97320.22;;;12.09;100.00
57628;BME280;43451;49.060;10.616;2023-10-09T00:43:50;97320.97;;;12.02;100.00
57628;BME280;43451;49.060;10.616;2023-10-09T00:46:18;97319.03;;;11.99;100.00
57628;BME280;43451;49.060;10.616;2023-10-09T00:48:45;97308.50;;;12.01;100.00
57628;BME280;43451;49.060;10.616;2023-10-09T00:51:13;97308.13;;;12.03;100.00
57628;BME280;43451;49.060;10.616;2023-10-09T00:53:48;97308.91;;;12.00;100.00
57628;BME280;43451;49.060;10.616;2023-10-09T00:56:20;97298.38;;;11.98;100.00
57628;BME280;43451;49.060;10.616;2023-10-09T00:58:57;97305.78;;;12.01;100.00
57628;BME280;43451;49.060;10.616;2023-10-09T01:01:43;97302.69;;;12.10;100.00
57628;BME280;43451;49.060;10.616;2023-10-09T01:04:29;97297.25;;;12.10;100.00
57628;BME280;43451;49.060;10.616;2023-10-09T01:07:02;97303.47;;;12.11;100.00
57628;BME280;43451;49.060;10.616;2023-10-09T01:09:49;97290.25;;;12.20;100.00
57628;BME280;43451;49.060;10.616;2023-10-09T01:12:17;97293.38;;;12.18;100.00
57628;BME280;43451;49.060;10.616;2023-10-09T01:14:43;97280.13;;;12.17;100.00
57628;BME280;43451;49.060;10.616;2023-10-09T01:17:09;97270.41;;;12.23;100.00
57628;BME280;43451;49.060;10.616;2023-10-09T01:19:35;97279.75;;;12.25;100.00
57628;BME280;43451;49.060;10.616;2023-10-09T01:22:00;97276.25;;;12.25;100.00
57628;BME280;43451;49.060;10.616;2023-10-09T01:24:40;97276.25;;;12.25;100.00
57628;BME280;43451;49.060;10.616;2023-10-09T01:27:06;97276.25;;;12.25;100.00
57628;BME280;43451;49.060;10.616;2023-10-09T01:29:39;97281.72;;;12.25;100.00
57628;BME280;43451;49.060;10.616;2023-10-09T01:32:07;97275.50;;;12.24;100.00
57628;BME280;43451;49.060;10.616;2023-10-09T01:34:35;97279.34;;;12.27;100.00
57628;BME280;43451;49.060;10.616;2023-10-09T01:37:13;97270.81;;;12.32;100.00
57628;BME280;43451;49.060;10.616;2023-10-09T01:39:58;97274.31;;;12.32;100.00
57628;BME280;43451;49.060;10.616;2023-10-09T01:42:26;97269.63;;;12.33;100.00
57628;BME280;43451;49.060;10.616;2023-10-09T01:45:10;97265.75;;;12.34;100.00
57628;BME280;43451;49.060;10.616;2023-10-09T01:47:56;97256.00;;;12.29;100.00
57628;BME280;43451;49.060;10.616;2023-10-09T01:50:22;97254.47;;;12.28;100.00
57628;BME280;43451;49.060;10.616;2023-10-09T01:52:56;97244.72;;;12.20;100.00
57628;BME280;43451;49.060;10.616;2023-10-09T01:55:21;97250.16;;;12.24;100.00
57628;BME280;43451;49.060;10.616;2023-10-09T01:57:55;97248.63;;;12.23;100.00
57628;BME280;43451;49.060;10.616;2023-10-09T02:00:23;97238.91;;;12.22;100.00
57628;BME280;43451;49.060;10.616;2023-10-09T02:02:50;97242.78;;;12.21;100.00
57628;BME280;43451;49.060;10.616;2023-10-09T02:05:16;97236.56;;;12.20;100.00
57628;BME280;43451;49.060;10.616;2023-10-09T02:07:44;97232.69;;;12.25;100.00
57628;BME280;43451;49.060;10.616;2023-10-09T02:10:12;97226.81;;;12.34;100.00
57628;BME280;43451;49.060;10.616;2023-10-09T02:12:50;97225.66;;;12.31;100.00
57628;BME280;43451;49.060;10.616;2023-10-09T02:15:29;97231.50;;;12.40;100.00
57628;BME280;43451;49.060;10.616;2023-10-09T02:18:20;97227.22;;;12.32;100.00
57628;BME280;43451;49.060;10.616;2023-10-09T02:23:31;97220.59;;;12.26;100.00
57628;BME280;43451;49.060;10.616;2023-10-09T02:26:09;97220.19;;;12.24;100.00
57628;BME280;43451;49.060;10.616;2023-10-09T02:28:36;97218.66;;;12.23;100.00
57628;BME280;43451;49.060;10.616;2023-10-09T02:31:09;97226.06;;;12.22;100.00
57628;BME280;43451;49.060;10.616;2023-10-09T02:33:36;97218.25;;;12.21;100.00
57628;BME280;43451;49.060;10.616;2023-10-09T02:36:04;97220.19;;;12.20;100.00
57628;BME280;43451;49.060;10.616;2023-10-09T02:38:31;97223.72;;;12.17;100.00
57628;BME280;43451;49.060;10.616;2023-10-09T02:41:01;97224.13;;;12.16;100.00
57628;BME280;43451;49.060;10.616;2023-10-09T02:43:31;97216.31;;;12.14;100.00
57628;BME280;43451;49.060;10.616;2023-10-09T02:46:03;97221.00;;;12.14;100.00
57628;BME280;43451;49.060;10.616;2023-10-09T02:48:39;97223.34;;;12.12;100.00
57628;BME280;43451;49.060;10.616;2023-10-09T02:51:10;97218.66;;;12.08;100.00
57628;BME280;43451;49.060;10.616;2023-10-09T02:54:03;97215.16;;;12.12;100.00
57628;BME280;43451;49.060;10.616;2023-10-09T02:56:52;97215.16;;;12.12;100.00
57628;BME280;43451;49.060;10.616;2023-10-09T02:59:24;97208.16;;;12.07;100.00
57628;BME280;43451;49.060;10.616;2023-10-09T03:01:50;97205.06;;;12.08;100.00
57628;BME280;43451;49.060;10.616;2023-10-09T03:04:18;97199.59;;;12.08;100.00
57628;BME280;43451;49.060;10.616;2023-10-09T03:06:44;97199.19;;;12.06;100.00
57628;BME280;43451;49.060;10.616;2023-10-09T03:09:17;97201.56;;;12.12;100.00
57628;BME280;43451;49.060;10.616;2023-10-09T03:11:48;97198.44;;;12.10;100.00
57628;BME280;43451;49.060;10.616;2023-10-09T03:14:19;97200.75;;;12.11;100.00
57628;BME280;43451;49.060;10.616;2023-10-09T03:16:48;97192.59;;;12.07;100.00
57628;BME280;43451;49.060;10.616;2023-10-09T03:19:14;97192.97;;;12.10;100.00
57628;BME280;43451;49.060;10.616;2023-10-09T03:21:39;97184.81;;;12.10;100.00
57628;BME280;43451;49.060;10.616;2023-10-09T03:24:07;97180.53;;;12.08;100.00
57628;BME280;43451;49.060;10.616;2023-10-09T03:26:33;97173.53;;;12.15;100.00
57628;BME280;43451;49.060;10.616;2023-10-09T03:28:59;97179.75;;;12.12;100.00
57628;BME280;43451;49.060;10.616;2023-10-09T03:31:27;97187.53;;;12.02;100.00
57628;BME280;43451;49.060;10.616;2023-10-09T03:33:56;97184.41;;;12.00;100.00
57628;BME280;43451;49.060;10.616;2023-10-09T03:36:21;97186.38;;;12.03;100.00
57628;BME280;43451;49.060;10.616;2023-10-09T03:38:47;97187.91;;;11.97;100.00
57628;BME280;43451;49.060;10.616;2023-10-09T03:41:13;97188.28;;;11.92;100.00
57628;BME280;43451;49.060;10.616;2023-10-09T03:43:39;97189.09;;;12.03;100.00
57628;BME280;43451;49.060;10.616;2023-10-09T03:46:09;97203.88;;;12.02;100.00
57628;BME280;43451;49.060;10.616;2023-10-09T03:48:51;97199.22;;;12.03;100.00
57628;BME280;43451;49.060;10.616;2023-10-09T03:51:22;97200.75;;;11.97;100.00
57628;BME280;43451;49.060;10.616;2023-10-09T03:53:49;97200.00;;;11.96;100.00
57628;BME280;43451;49.060;10.616;2023-10-09T03:56:15;97201.53;;;12.01;100.00
57628;BME280;43451;49.060;10.616;2023-10-09T03:58:45;97201.13;;;11.95;100.00
57628;BME280;43451;49.060;10.616;2023-10-09T04:01:12;97203.09;;;11.95;100.00
57628;BME280;43451;49.060;10.616;2023-10-09T04:03:47;97201.53;;;11.94;100.00
57628;BME280;43451;49.060;10.616;2023-10-09T04:06:13;97203.09;;;11.95;100.00
57628;BME280;43451;49.060;10.616;2023-10-09T04:08:40;97201.53;;;11.97;100.00
57628;BME280;43451;49.060;10.616;2023-10-09T04:11:13;97198.03;;;11.93;100.00
57628;BME280;43451;49.060;10.616;2023-10-09T04:13:45;97200.00;;;11.93;100.00
57628;BME280;43451;49.060;10.616;2023-10-09T04:16:25;97194.13;;;11.83;100.00
57628;BME280;43451;49.060;10.616;2023-10-09T04:19:00;97189.81;;;11.75;100.00
57628;BME280;43451;49.060;10.616;2023-10-09T04:21:32;97189.41;;;11.70;100.00
57628;BME280;43451;49.060;10.616;2023-10-09T04:24:02;97190.19;;;11.67;100.00
57628;BME280;43451;49.060;10.616;2023-10-09T04:26:39;97189.03;;;11.64;100.00
57628;BME280;43451;49.060;10.616;2023-10-09T04:29:10;97185.91;;;11.62;100.00
57628;BME280;43451;49.060;10.616;2023-10-09T04:31:38;97190.59;;;11.61;100.00
57628;BME280;43451;49.060;10.616;2023-10-09T04:34:04;97188.25;;;11.63;100.00
57628;BME280;43451;49.060;10.616;2023-10-09T04:36:50;97196.03;;;11.61;100.00
57628;BME280;43451;49.060;10.616;2023-10-09T04:39:17;97187.09;;;11.65;100.00
57628;BME280;43451;49.060;10.616;2023-10-09T04:41:54;97193.31;;;11.69;100.00
57628;BME280;43451;49.060;10.616;2023-10-09T04:44:38;97188.63;;;11.66;100.00
57628;BME280;43451;49.060;10.616;2023-10-09T04:47:04;97187.47;;;11.70;100.00
57628;BME280;43451;49.060;10.616;2023-10-09T04:49:36;97182.44;;;11.69;100.00
57628;BME280;43451;49.060;10.616;2023-10-09T04:52:27;97183.59;;;11.82;100.00
57628;BME280;43451;49.060;10.616;2023-10-09T04:54:56;97178.94;;;11.79;100.00
57628;BME280;43451;49.060;10.616;2023-10-09T04:57:48;97178.94;;;11.75;100.00
57628;BME280;43451;49.060;10.616;2023-10-09T05:00:48;97174.31;;;11.87;100.00
57628;BME280;43451;49.060;10.616;2023-10-09T05:03:28;97167.28;;;11.85;100.00
57628;BME280;43451;49.060;10.616;2023-10-09T05:05:54;97161.81;;;11.82;100.00
57628;BME280;43451;49.060;10.616;2023-10-09T05:08:45;97164.16;;;11.73;100.00
57628;BME280;43451;49.060;10.616;2023-10-09T05:11:11;97166.88;;;11.69;100.00
57628;BME280;43451;49.060;10.616;2023-10-09T05:13:55;97164.50;;;11.60;100.00
57628;BME280;43451;49.060;10.616;2023-10-09T05:16:37;97176.56;;;11.52;100.00
57628;BME280;43451;49.060;10.616;2023-10-09T05:19:03;97164.88;;;11.45;100.00
57628;BME280;43451;49.060;10.616;2023-10-09T05:21:36;97165.28;;;11.43;100.00
57628;BME280;43451;49.060;10.616;2023-10-09T05:24:13;97168.00;;;11.43;100.00
57628;BME280;43451;49.060;10.616;2023-10-09T05:29:20;97172.66;;;11.39;100.00
57628;BME280;43451;49.060;10.616;2023-10-09T05:31:46;97182.78;;;11.42;100.00
57628;BME280;43451;49.060;10.616;2023-10-09T05:34:23;97175.00;;;11.44;100.00
57628;BME280;43451;49.060;10.616;2023-10-09T05:36:49;97172.66;;;11.46;100.00
57628;BME280;43451;49.060;10.616;2023-10-09T05:39:14;97172.28;;;11.48;100.00
57628;BME280;43451;49.060;10.616;2023-10-09T05:42:07;97175.81;;;11.55;100.00
57628;BME280;43451;49.060;10.616;2023-10-09T05:44:43;97185.91;;;11.55;100.00
57628;BME280;43451;49.060;10.616;2023-10-09T05:47:21;97178.91;;;11.57;100.00
57628;BME280;43451;49.060;10.616;2023-10-09T05:49:58;97176.94;;;11.51;100.00
57628;BME280;43451;49.060;10.616;2023-10-09T05:52:46;97178.13;;;11.57;100.00
57628;BME280;43451;49.060;10.616;2023-10-09T05:55:18;97179.69;;;11.61;100.00
57628;BME280;43451;49.060;10.616;2023-10-09T05:57:47;97178.94;;;11.61;100.00
57628;BME280;43451;49.060;10.616;2023-10-09T06:00:31;97185.16;;;11.72;100.00
57628;BME280;43451;49.060;10.616;2023-10-09T06:03:15;97179.31;;;11.67;100.00
57628;BME280;43451;49.060;10.616;2023-10-09T06:05:51;97178.16;;;11.68;100.00
57628;BME280;43451;49.060;10.616;2023-10-09T06:08:20;97180.09;;;11.67;100.00
57628;BME280;43451;49.060;10.616;2023-10-09T06:11:12;97180.47;;;11.73;100.00
57628;BME280;43451;49.060;10.616;2023-10-09T06:13:58;97184.38;;;11.79;100.00
57628;BME280;43451;49.060;10.616;2023-10-09T06:16:42;97188.28;;;11.85;100.00
57628;BME280;43451;49.060;10.616;2023-10-09T06:19:10;97190.63;;;12.04;100.00
57628;BME280;43451;49.060;10.616;2023-10-09T06:21:46;97196.84;;;12.05;100.00
57628;BME280;43451;49.060;10.616;2023-10-09T06:24:20;97193.75;;;12.03;100.00
57628;BME280;43451;49.060;10.616;2023-10-09T06:26:49;97182.84;;;12.14;100.00
57628;BME280;43451;49.060;10.616;2023-10-09T06:29:24;97185.97;;;12.19;100.00
57628;BME280;43451;49.060;10.616;2023-10-09T06:32:17;97185.16;;;12.33;100.00
57628;BME280;43451;49.060;10.616;2023-10-09T06:34:56;97175.84;;;12.38;100.00
57628;BME280;43451;49.060;10.616;2023-10-09T06:37:40;97180.03;;;12.71;100.00
57628;BME280;43451;49.060;10.616;2023-10-09T06:40:26;97191.69;;;12.82;100.00
57628;BME280;43451;49.060;10.616;2023-10-09T06:43:10;97185.38;;;13.03;100.00
57628;BME280;43451;49.060;10.616;2023-10-09T06:45:42;97194.31;;;13.11;100.00
57628;BME280;43451;49.060;10.616;2023-10-09T06:48:10;97191.91;;;13.34;100.00
57628;BME280;43451;49.060;10.616;2023-10-09T06:50:54;97192.56;;;13.56;100.00
57628;BME280;43451;49.060;10.616;2023-10-09T06:53:32;97188.59;;;13.68;100.00
57628;BME280;43451;49.060;10.616;2023-10-09T06:56:15;97189.38;;;13.65;100.00
57628;BME280;43451;49.060;10.616;2023-10-09T06:58:51;97189.25;;;13.86;100.00
57628;BME280;43451;49.060;10.616;2023-10-09T07:01:20;97193.13;;;13.85;100.00
57628;BME280;43451;49.060;10.616;2023-10-09T07:04:07;97195.03;;;13.96;100.00
57628;BME280;43451;49.060;10.616;2023-10-09T07:06:56;97192.09;;;14.24;100.00
57628;BME280;43451;49.060;10.616;2023-10-09T07:09:22;97201.88;;;14.18;100.00
57628;BME280;43451;49.060;10.616;2023-10-09T07:11:49;97206.03;;;14.33;100.00
57628;BME280;43451;49.060;10.616;2023-10-09T07:17:06;97225.91;;;14.41;100.00
57628;BME280;43451;49.060;10.616;2023-10-09T07:19:44;97219.59;;;14.48;100.00
57628;BME280;43451;49.060;10.616;2023-10-09T07:22:16;97222.28;;;14.55;100.00
57628;BME280;43451;49.060;10.616;2023-10-09T07:24:48;97224.63;;;14.56;100.00
57628;BME280;43451;49.060;10.616;2023-10-09T07:27:28;97226.13;;;14.61;100.00
57628;BME280;43451;49.060;10.616;2023-10-09T07:30:16;97230.72;;;14.71;100.00
57628;BME280;43451;49.060;10.616;2023-10-09T07:33:07;97223.81;;;14.59;100.00
57628;BME280;43451;49.060;10.616;2023-10-09T07:35:39;97221.44;;;14.61;100.00
57628;BME280;43451;49.060;10.616;2023-10-09T07:38:11;97224.13;;;14.69;100.00
57628;BME280;43451;49.060;10.616;2023-10-09T07:40:40;97219.75;;;14.75;100.00
57628;BME280;43451;49.060;10.616;2023-10-09T07:43:29;97224.28;;;14.89;100.00
57628;BME280;43451;49.060;10.616;2023-10-09T07:46:03;97219.41;;;15.07;100.00
57628;BME280;43451;49.060;10.616;2023-10-09T07:48:29;97225.75;;;15.00;100.00
57628;BME280;43451;49.060;10.616;2023-10-09T07:51:12;97237.00;;;15.06;100.00
57628;BME280;43451;49.060;10.616;2023-10-09T07:53:38;97233.38;;;15.13;100.00
57628;BME280;43451;49.060;10.616;2023-10-09T07:56:11;97231.75;;;15.19;100.00
57628;BME280;43451;49.060;10.616;2023-10-09T07:58:39;97240.31;;;15.24;100.00
57628;BME280;43451;49.060;10.616;2023-10-09T08:01:12;97237.03;;;15.37;100.00
57628;BME280;43451;49.060;10.616;2023-10-09T08:03:50;97235.66;;;15.21;100.00
57628;BME280;43451;49.060;10.616;2023-10-09T08:06:30;97230.81;;;15.32;100.00
57628;BME280;43451;49.060;10.616;2023-10-09T08:09:14;97238.66;;;15.30;100.00
57628;BME280;43451;49.060;10.616;2023-10-09T08:11:41;97245.28;;;15.33;100.00
57628;BME280;43451;49.060;10.616;2023-10-09T08:14:40;97234.56;;;15.46;100.00
57628;BME280;43451;49.060;10.616;2023-10-09T08:17:06;97246.34;;;15.43;100.00
57628;BME280;43451;49.060;10.616;2023-10-09T08:19:48;97253.91;;;15.62;100.00
57628;BME280;43451;49.060;10.616;2023-10-09T08:22:28;97250.84;;;15.56;100.00
57628;BME280;43451;49.060;10.616;2023-10-09T08:24:54;97254.94;;;15.45;100.00
57628;BME280;43451;49.060;10.616;2023-10-09T08:27:28;97246.75;;;15.41;100.00
57628;BME280;43451;49.060;10.616;2023-10-09T08:30:00;97252.47;;;15.54;100.00
57628;BME280;43451;49.060;10.616;2023-10-09T08:32:49;97256.69;;;15.59;100.00
57628;BME280;43451;49.060;10.616;2023-10-09T08:35:36;97254.28;;;15.68;100.00
57628;BME280;43451;49.060;10.616;2023-10-09T08:38:14;97256.22;;;15.67;100.00
57628;BME280;43451;49.060;10.616;2023-10-09T08:40:42;97254.66;;;15.70;100.00
57628;BME280;43451;49.060;10.616;2023-10-09T08:43:21;97255.50;;;15.60;100.00
57628;BME280;43451;49.060;10.616;2023-10-09T08:45:48;97268.06;;;15.57;100.00
57628;BME280;43451;49.060;10.616;2023-10-09T08:48:17;97262.44;;;15.71;100.00
57628;BME280;43451;49.060;10.616;2023-10-09T08:50:45;97264.34;;;15.74;100.00
57628;BME280;43451;49.060;10.616;2023-10-09T08:53:12;97263.91;;;15.80;100.00
57628;BME280;43451;49.060;10.616;2023-10-09T08:55:39;97261.31;;;15.96;100.00
57628;BME280;43451;49.060;10.616;2023-10-09T08:58:06;97267.41;;;16.07;100.00
57628;BME280;43451;49.060;10.616;2023-10-09T09:00:58;97270.41;;;16.16;100.00
57628;BME280;43451;49.060;10.616;2023-10-09T09:03:26;97273.53;;;16.18;100.00
57628;BME280;43451;49.060;10.616;2023-10-09T09:05:59;97267.91;;;16.25;100.00
57628;BME280;43451;49.060;10.616;2023-10-09T09:08:30;97276.03;;;16.33;100.00
57628;BME280;43451;49.060;10.616;2023-10-09T09:11:02;97284.69;;;16.31;100.00
57628;BME280;43451;49.060;10.616;2023-10-09T09:14:03;97287.31;;;16.38;100.00
57628;BME280;43451;49.060;10.616;2023-10-09T09:16:40;97281.00;;;16.41;100.00
57628;BME280;43451;49.060;10.616;2023-10-09T09:19:09;97287.19;;;16.45;100.00
57628;BME280;43451;49.060;10.616;2023-10-09T09:21:36;97286.25;;;16.56;100.00
57628;BME280;43451;49.060;10.616;2023-10-09T09:24:08;97287.69;;;16.64;100.00
57628;BME280;43451;49.060;10.616;2023-10-09T09:26:47;97293.38;;;16.77;100.00
57628;BME280;43451;49.060;10.616;2023-10-09T09:32:01;97291.09;;;16.95;100.00
57628;BME280;43451;49.060;10.616;2023-10-09T09:34:49;97280.22;;;17.11;100.00
57628;BME280;43451;49.060;10.616;2023-10-09T09:37:23;97277.47;;;17.11;100.00
57628;BME280;43451;49.060;10.616;2023-10-09T09:40:09;97281.63;;;17.20;99.87
57628;BME280;43451;49.060;10.616;2023-10-09T09:42:57;97282.69;;;17.26;100.00
57628;BME280;43451;49.060;10.616;2023-10-09T09:45:32;97273.63;;;17.29;100.00
57628;BME280;43451;49.060;10.616;2023-10-09T09:48:02;97288.75;;;17.17;100.00
57628;BME280;43451;49.060;10.616;2023-10-09T09:50:32;97288.31;;;17.18;100.00
57628;BME280;43451;49.060;10.616;2023-10-09T09:52:59;97297.69;;;17.21;100.00
57628;BME280;43451;49.060;10.616;2023-10-09T09:55:26;97296.91;;;17.21;100.00
57628;BME280;43451;49.060;10.616;2023-10-09T09:57:58;97299.09;;;17.29;100.00
57628;BME280;43451;49.060;10.616;2023-10-09T10:00:29;97301.72;;;17.36;100.00
57628;BME280;43451;49.060;10.616;2023-10-09T10:03:20;97295.72;;;17.61;92.15
57628;BME280;43451;49.060;10.616;2023-10-09T10:05:50;97292.66;;;17.76;92.01
57628;BME280;43451;49.060;10.616;2023-10-09T10:08:19;97302.41;;;17.60;98.61
57628;BME280;43451;49.060;10.616;2023-10-09T10:10:46;97296.41;;;17.66;98.63
57628;BME280;43451;49.060;10.616;2023-10-09T10:18:58;97284.63;;;18.05;92.90
57628;BME280;43451;49.060;10.616;2023-10-09T10:21:34;97278.00;;;18.02;100.00
57628;BME280;43451;49.060;10.616;2023-10-09T10:29:44;97292.06;;;18.04;90.90
57628;BME280;43451;49.060;10.616;2023-10-09T10:32:15;97288.56;;;18.20;93.38
57628;BME280;43451;49.060;10.616;2023-10-09T10:40:09;97277.13;;;18.05;98.68
57628;BME280;43451;49.060;10.616;2023-10-09T10:43:03;97278.44;;;18.17;93.39
57628;BME280;43451;49.060;10.616;2023-10-09T10:45:41;97282.66;;;18.22;95.31
57628;BME280;43451;49.060;10.616;2023-10-09T10:48:10;97279.13;;;18.21;94.31
57628;BME280;43451;49.060;10.616;2023-10-09T10:50:49;97285.06;;;18.20;96.02
57628;BME280;43451;49.060;10.616;2023-10-09T10:53:22;97281.53;;;18.19;94.23
57628;BME280;43451;49.060;10.616;2023-10-09T10:55:58;97279.06;;;18.25;93.68
57628;BME280;43451;49.060;10.616;2023-10-09T10:58:51;97281.31;;;18.30;94.89
57628;BME280;43451;49.060;10.616;2023-10-09T11:01:37;97270.63;;;18.32;92.26
57628;BME280;43451;49.060;10.616;2023-10-09T11:04:29;97264.25;;;18.35;92.19
57628;BME280;43451;49.060;10.616;2023-10-09T11:07:01;97255.41;;;18.27;95.80
57628;BME280;43451;49.060;10.616;2023-10-09T11:09:45;97246.91;;;18.22;99.75
57628;BME280;43451;49.060;10.616;2023-10-09T11:12:45;97249.47;;;18.13;99.94
57628;BME280;43451;49.060;10.616;2023-10-09T11:15:34;97241.41;;;18.05;100.00
57628;BME280;43451;49.060;10.616;2023-10-09T11:18:15;97229.09;;;17.94;100.00
57628;BME280;43451;49.060;10.616;2023-10-09T11:20:52;97213.44;;;18.07;96.14
57628;BME280;43451;49.060;10.616;2023-10-09T11:23:33;97223.38;;;18.21;96.51
57628;BME280;43451;49.060;10.616;2023-10-09T11:28:39;97218.63;;;18.38;91.89
57628;BME280;43451;49.060;10.616;2023-10-09T11:31:14;97212.25;;;18.24;96.28
57628;BME280;43451;49.060;10.616;2023-10-09T11:33:47;97218.63;;;18.21;96.11
57628;BME280;43451;49.060;10.616;2023-10-09T11:36:21;97212.09;;;18.31;97.72
57628;BME280;43451;49.060;10.616;2023-10-09T11:39:04;97223.84;;;18.32;97.30
57628;BME280;43451;49.060;10.616;2023-10-09T11:41:40;97231.59;;;18.37;96.51
57628;BME280;43451;49.060;10.616;2023-10-09T11:44:10;97229.81;;;18.30;100.00
57628;BME280;43451;49.060;10.616;2023-10-09T11:46:58;97229.94;;;18.23;95.26
57628;BME280;43451;49.060;10.616;2023-10-09T11:49:50;97223.09;;;18.31;96.56
57628;BME280;43451;49.060;10.616;2023-10-09T11:52:22;97220.34;;;18.15;99.21
57628;BME280;43451;49.060;10.616;2023-10-09T11:54:58;97217.41;;;18.06;100.00
57628;BME280;43451;49.060;10.616;2023-10-09T11:57:25;97208.31;;;18.09;100.00
57628;BME280;43451;49.060;10.616;2023-10-09T12:00:01;97217.31;;;18.09;100.00
57628;BME280;43451;49.060;10.616;2023-10-09T12:02:35;97217.59;;;18.15;100.00
57628;BME280;43451;49.060;10.616;2023-10-09T12:05:10;97227.16;;;18.27;100.00
57628;BME280;43451;49.060;10.616;2023-10-09T12:07:44;97235.91;;;18.38;99.42
57628;BME280;43451;49.060;10.616;2023-10-09T12:10:09;97248.59;;;18.48;93.48
57628;BME280;43451;49.060;10.616;2023-10-09T12:12:36;97252.06;;;18.52;98.55
57628;BME280;43451;49.060;10.616;2023-10-09T12:15:02;97269.06;;;18.64;97.34
57628;BME280;43451;49.060;10.616;2023-10-09T12:17:30;97278.72;;;18.88;91.22
57628;BME280;43451;49.060;10.616;2023-10-09T12:19:56;97272.34;;;18.91;92.43
57628;BME280;43451;49.060;10.616;2023-10-09T12:22:21;97273.38;;;18.97;87.67
57628;BME280;43451;49.060;10.616;2023-10-09T12:24:47;97273.56;;;19.19;87.31
57628;BME280;43451;49.060;10.616;2023-10-09T12:27:13;97275.00;;;19.24;79.99
57628;BME280;43451;49.060;10.616;2023-10-09T12:29:38;97251.44;;;19.23;83.78
57628;BME280;43451;49.060;10.616;2023-10-09T12:32:10;97258.19;;;19.35;86.09
57628;BME280;43451;49.060;10.616;2023-10-09T12:34:36;97249.97;;;19.47;82.95
57628;BME280;43451;49.060;10.616;2023-10-09T12:37:04;97237.19;;;19.54;80.38
57628;BME280;43451;49.060;10.616;2023-10-09T12:39:30;97236.72;;;19.55;82.65
57628;BME280;43451;49.060;10.616;2023-10-09T12:41:59;97214.91;;;19.61;81.74
57628;BME280;43451;49.060;10.616;2023-10-09T12:44:35;97176.75;;;19.46;87.77
57628;BME280;43451;49.060;10.616;2023-10-09T12:47:08;97175.97;;;19.46;88.80
57628;BME280;43451;49.060;10.616;2023-10-09T12:49:37;97179.09;;;19.61;75.74
57628;BME280;43451;49.060;10.616;2023-10-09T12:52:06;97163.09;;;19.81;76.24
57628;BME280;43451;49.060;10.616;2023-10-09T12:54:44;97156.06;;;19.80;77.92
57628;BME280;43451;49.060;10.616;2023-10-09T12:57:12;97145.91;;;19.77;81.67
57628;BME280;43451;49.060;10.616;2023-10-09T12:59:41;97146.69;;;19.78;79.51
57628;BME280;43451;49.060;10.616;2023-10-09T13:02:14;97155.94;;;19.97;75.61
57628;BME280;43451;49.060;10.616;2023-10-09T13:05:00;97143.16;;;19.90;82.16
57628;BME280;43451;49.060;10.616;2023-10-09T13:07:29;97132.78;;;19.81;78.08
57628;BME280;43451;49.060;10.616;2023-10-09T13:09:54;97136.09;;;19.89;79.58
57628;BME280;43451;49.060;10.616;2023-10-09T13:12:37;97155.50;;;19.98;78.57
57628;BME280;43451;49.060;10.616;2023-10-09T13:15:09;97159.69;;;20.03;79.78
57628;BME280;43451;49.060;10.616;2023-10-09T13:17:36;97142.66;;;20.04;73.70
57628;BME280;43451;49.060;10.616;2023-10-09T13:20:06;97152.94;;;20.04;67.35
57628;BME280;43451;49.060;10.616;2023-10-09T13:22:42;97139.34;;;20.09;69.56
57628;BME280;43451;49.060;10.616;2023-10-09T13:25:11;97151.94;;;20.10;70.38
57628;BME280;43451;49.060;10.616;2023-10-09T13:27:43;97151.41;;;20.03;68.90
57628;BME280;43451;49.060;10.616;2023-10-09T13:30:19;97151.81;;;20.01;68.98
57628;BME280;43451;49.060;10.616;2023-10-09T13:32:51;97146.56;;;19.94;70.35
57628;BME280;43451;49.060;10.616;2023-10-09T13:35:20;97139.03;;;19.94;72.40
57628;BME280;43451;49.060;10.616;2023-10-09T13:37:53;97138.03;;;20.01;72.83
57628;BME280;43451;49.060;10.616;2023-10-09T13:40:21;97137.47;;;20.19;64.89
57628;BME280;43451;49.060;10.616;2023-10-09T13:42:57;97123.09;;;20.24;63.28
57628;BME280;43451;49.060;10.616;2023-10-09T13:45:27;97118.19;;;20.06;68.53
57628;BME280;43451;49.060;10.616;2023-10-09T13:47:57;97123.19;;;19.86;65.81